Time,TemperatureF,DewpointF,PressureIn,WindDirection,WindDirectionDegrees,WindSpeedMPH,WindSpeedGustMPH,Humidity,HourlyPrecipIn,Conditions,Clouds,dailyrainin,SoftwareType,DateUTC
2013-03-16 00:01:00,42.8,40.6,29.57,NE,49,0.0,0.0,92,0.00,,,0.00,WeatherCatV1.10B1784,2013-03-16 05:01:00,
2013-03-16 00:06:00,42.6,40.4,29.57,East,96,0.0,0.0,92,0.00,,,0.00,WeatherCatV1.10B1784,2013-03-16 05:06:00,
2013-03-16 00:11:00,42.5,40.3,29.57,ENE,78,0.0,0.0,92,0.00,,,0.00,WeatherCatV1.10B1784,2013-03-16 05:11:00,
2013-03-16 00:16:00,42.3,40.1,29.56,East,80,0.0,0.0,92,0.00,,,0.00,WeatherCatV1.10B1784,2013-03-16 05:16:00,
2013-03-16 00:21:00,42.3,40.1,29.56,ENE,66,0.0,0.0,92,0.00,,,0.00,WeatherCatV1.10B1784,2013-03-16 05:21:00,
2013-03-16 00:26:00,42.2,40.3,29.56,ENE,65,0.0,0.0,93,0.00,,,0.00,WeatherCatV1.10B1784,2013-03-16 05:26:00,
2013-03-16 00:31:00,42.1,40.2,29.55,East,100,0.0,0.0,93,0.00,,,0.00,WeatherCatV1.10B1784,2013-03-16 05:31:00,
2013-03-16 00:36:00,41.9,40.0,29.55,ENE,62,0.0,0.0,93,0.00,,,0.00,WeatherCatV1.10B1784,2013-03-16 05:36:00,
2013-03-16 00:41:00,41.8,39.9,29.55,ENE,61,0.0,0.0,93,0.00,,,0.00,WeatherCatV1.10B1784,2013-03-16 05:41:00,
2013-03-16 00:46:00,41.6,39.7,29.54,ESE,123,0.0,0.0,93,0.00,,,0.00,WeatherCatV1.10B1784,2013-03-16 05:46:00,
2013-03-16 00:51:00,41.6,39.7,29.54,East,88,0.0,0.0,93,0.00,,,0.00,WeatherCatV1.10B1784,2013-03-16 05:51:00,
2013-03-16 00:56:00,41.5,39.9,29.54,East,89,0.0,0.0,94,0.00,,,0.00,WeatherCatV1.10B1784,2013-03-16 05:56:00,
2013-03-16 01:01:00,41.3,39.7,29.56,NE,35,0.0,0.0,94,0.00,,,0.00,WeatherCatV1.10B1784,2013-03-16 06:01:00,
2013-03-16 01:06:00,41.2,39.3,29.56,North,3,0.0,0.0,93,0.00,,,0.00,WeatherCatV1.10B1784,2013-03-16 06:06:00,
2013-03-16 01:11:00,41.1,39.5,29.56,NE,44,0.0,0.0,94,0.00,,,0.00,WeatherCatV1.10B1784,2013-03-16 06:11:00,
2013-03-16 01:16:00,40.9,39.3,29.57,NW,308,0.0,0.0,94,0.00,,,0.00,WeatherCatV1.10B1784,2013-03-16 06:16:00,
2013-03-16 01:21:00,40.6,39.0,29.57,NNE,31,0.0,0.0,94,0.00,,,0.00,WeatherCatV1.10B1784,2013-03-16 06:21:00,
2013-03-16 01:26:00,40.3,38.7,29.57,NNE,32,0.0,0.0,94,0.00,,,0.00,WeatherCatV1.10B1784,2013-03-16 06:26:00,
2013-03-16 01:31:00,40.2,38.6,29.56,East,82,0.0,0.0,94,0.00,,,0.00,WeatherCatV1.10B1784,2013-03-16 06:31:00,
2013-03-16 01:36:00,40.1,38.5,29.56,ENE,64,0.0,0.0,94,0.00,,,0.00,WeatherCatV1.10B1784,2013-03-16 06:36:00,
2013-03-16 01:41:00,39.6,37.7,29.56,North,3,0.0,0.0,93,0.00,,,0.00,WeatherCatV1.10B1784,2013-03-16 06:41:00,
2013-03-16 01:46:00,39.2,37.3,29.57,NE,45,0.0,0.0,93,0.00,,,0.00,WeatherCatV1.10B1784,2013-03-16 06:46:00,
2013-03-16 01:51:00,38.6,37.0,29.57,NE,54,0.0,0.0,94,0.00,,,0.00,WeatherCatV1.10B1784,2013-03-16 06:51:00,
2013-03-16 01:56:00,38.2,36.6,29.57,ESE,113,0.0,0.0,94,0.00,,,0.00,WeatherCatV1.10B1784,2013-03-16 06:56:00,
2013-03-16 02:01:00,38.0,36.4,29.59,East,82,0.0,0.0,94,0.00,,,0.00,WeatherCatV1.10B1784,2013-03-16 07:01:00,
2013-03-16 02:06:00,37.9,36.6,29.59,NNE,27,0.0,0.0,95,0.00,,,0.00,WeatherCatV1.10B1784,2013-03-16 07:06:00,
2013-03-16 02:11:00,37.8,36.5,29.59,North,1,0.0,0.0,95,0.00,,,0.00,WeatherCatV1.10B1784,2013-03-16 07:11:00,
2013-03-16 02:16:00,37.8,36.5,29.57,East,95,0.0,0.0,95,0.00,,,0.00,WeatherCatV1.10B1784,2013-03-16 07:16:00,
2013-03-16 02:21:00,37.5,36.2,29.57,NNW,332,0.0,0.0,95,0.00,,,0.00,WeatherCatV1.10B1784,2013-03-16 07:21:00,
2013-03-16 02:26:00,37.2,35.9,29.57,NE,51,0.0,0.0,95,0.00,,,0.00,WeatherCatV1.10B1784,2013-03-16 07:26:00,
2013-03-16 02:31:00,37.0,36.0,29.56,ENE,58,0.0,0.0,96,0.00,,,0.00,WeatherCatV1.10B1784,2013-03-16 07:31:00,
2013-03-16 02:36:00,37.0,36.0,29.56,East,85,0.0,0.0,96,0.00,,,0.00,WeatherCatV1.10B1784,2013-03-16 07:36:00,
2013-03-16 02:41:00,37.0,36.0,29.56,NE,47,0.0,0.0,96,0.00,,,0.00,WeatherCatV1.10B1784,2013-03-16 07:41:00,
2013-03-16 02:46:00,36.9,35.9,29.58,East,96,0.0,0.0,96,0.00,,,0.00,WeatherCatV1.10B1784,2013-03-16 07:46:00,
2013-03-16 02:51:00,37.0,36.0,29.58,NNE,25,0.0,0.0,96,0.00,,,0.00,WeatherCatV1.10B1784,2013-03-16 07:51:00,
2013-03-16 02:56:00,36.9,35.9,29.58,NE,38,0.0,0.0,96,0.00,,,0.00,WeatherCatV1.10B1784,2013-03-16 07:56:00,
2013-03-16 03:01:00,36.8,35.8,29.59,NNE,16,0.0,0.0,96,0.00,,,0.00,WeatherCatV1.10B1784,2013-03-16 08:01:00,
2013-03-16 03:06:00,36.8,35.8,29.59,NW,326,0.0,0.0,96,0.00,,,0.00,WeatherCatV1.10B1784,2013-03-16 08:06:00,
2013-03-16 03:11:00,36.6,35.6,29.59,NE,37,0.0,0.0,96,0.00,,,0.00,WeatherCatV1.10B1784,2013-03-16 08:11:00,
2013-03-16 03:16:00,36.5,35.5,29.59,NNE,23,0.0,0.0,96,0.00,,,0.00,WeatherCatV1.10B1784,2013-03-16 08:16:00,
2013-03-16 03:21:00,36.5,35.7,29.59,North,0,0.0,0.0,97,0.00,,,0.00,WeatherCatV1.10B1784,2013-03-16 08:21:00,
2013-03-16 03:26:00,36.3,35.5,29.59,NNW,328,0.0,0.0,97,0.00,,,0.00,WeatherCatV1.10B1784,2013-03-16 08:26:00,
2013-03-16 03:31:00,36.3,35.5,29.61,NNW,329,0.0,0.0,97,0.00,,,0.00,WeatherCatV1.10B1784,2013-03-16 08:31:00,
2013-03-16 03:36:00,36.0,35.0,29.61,NNE,13,0.0,0.0,96,0.00,,,0.00,WeatherCatV1.10B1784,2013-03-16 08:36:00,
2013-03-16 03:41:00,35.9,34.9,29.61,North,0,0.0,0.0,96,0.00,,,0.00,WeatherCatV1.10B1784,2013-03-16 08:41:00,
2013-03-16 03:46:00,35.8,35.0,29.61,NNE,24,0.0,0.0,97,0.00,,,0.00,WeatherCatV1.10B1784,2013-03-16 08:46:00,
2013-03-16 03:51:00,35.5,34.5,29.61,North,6,0.0,0.0,96,0.00,,,0.00,WeatherCatV1.10B1784,2013-03-16 08:51:00,
2013-03-16 03:56:00,35.3,34.5,29.61,NNW,344,0.0,0.0,97,0.00,,,0.00,WeatherCatV1.10B1784,2013-03-16 08:56:00,
2013-03-16 04:01:00,35.3,34.5,29.60,North,1,0.0,0.0,97,0.00,,,0.00,WeatherCatV1.10B1784,2013-03-16 09:01:00,
2013-03-16 04:06:00,35.3,34.5,29.60,NNE,20,0.0,0.0,97,0.00,,,0.00,WeatherCatV1.10B1784,2013-03-16 09:06:00,
2013-03-16 04:11:00,35.2,34.4,29.60,NE,51,0.0,0.0,97,0.00,,,0.00,WeatherCatV1.10B1784,2013-03-16 09:11:00,
2013-03-16 04:16:00,35.0,34.2,29.60,North,352,0.0,0.0,97,0.00,,,0.00,WeatherCatV1.10B1784,2013-03-16 09:16:00,
2013-03-16 04:21:00,35.0,34.2,29.60,NNW,346,0.0,0.0,97,0.00,,,0.00,WeatherCatV1.10B1784,2013-03-16 09:21:00,
2013-03-16 04:26:00,34.9,34.1,29.60,NNE,17,0.0,0.0,97,0.00,,,0.00,WeatherCatV1.10B1784,2013-03-16 09:26:00,
2013-03-16 04:31:00,34.9,34.1,29.61,North,7,0.0,0.0,97,0.00,,,0.00,WeatherCatV1.10B1784,2013-03-16 09:31:00,
2013-03-16 04:36:00,34.9,34.1,29.61,NNE,21,0.0,0.0,97,0.00,,,0.00,WeatherCatV1.10B1784,2013-03-16 09:36:00,
2013-03-16 04:41:00,34.9,34.1,29.61,NE,47,0.0,0.0,97,0.00,,,0.00,WeatherCatV1.10B1784,2013-03-16 09:41:00,
2013-03-16 04:46:00,34.9,34.1,29.61,NNE,25,0.0,0.0,97,0.00,,,0.00,WeatherCatV1.10B1784,2013-03-16 09:46:00,
2013-03-16 04:51:00,34.9,34.1,29.61,NE,35,0.0,0.0,97,0.00,,,0.00,WeatherCatV1.10B1784,2013-03-16 09:51:00,
2013-03-16 04:56:00,34.7,33.9,29.61,NNW,347,0.0,0.0,97,0.00,,,0.00,WeatherCatV1.10B1784,2013-03-16 09:56:00,
2013-03-16 05:01:00,34.9,34.1,29.62,North,7,0.0,0.0,97,0.00,,,0.00,WeatherCatV1.10B1784,2013-03-16 10:01:00,
2013-03-16 05:06:00,34.7,33.9,29.62,North,359,0.0,0.0,97,0.00,,,0.00,WeatherCatV1.10B1784,2013-03-16 10:06:00,
2013-03-16 05:11:00,34.7,33.9,29.62,NNE,25,0.0,0.0,97,0.00,,,0.00,WeatherCatV1.10B1784,2013-03-16 10:11:00,
2013-03-16 05:16:00,34.7,33.9,29.64,North,352,0.0,0.0,97,0.00,,,0.00,WeatherCatV1.10B1784,2013-03-16 10:16:00,
2013-03-16 05:21:00,34.6,33.8,29.64,North,353,0.0,0.0,97,0.00,,,0.00,WeatherCatV1.10B1784,2013-03-16 10:21:00,
2013-03-16 05:26:00,34.4,33.6,29.64,NNW,343,0.0,0.0,97,0.00,,,0.00,WeatherCatV1.10B1784,2013-03-16 10:26:00,
2013-03-16 05:31:00,34.4,33.6,29.64,North,349,0.0,0.0,97,0.00,,,0.00,WeatherCatV1.10B1784,2013-03-16 10:31:00,
2013-03-16 05:36:00,34.4,33.6,29.64,North,359,0.0,0.0,97,0.00,,,0.00,WeatherCatV1.10B1784,2013-03-16 10:36:00,
2013-03-16 05:41:00,34.4,33.6,29.64,NNE,13,0.0,0.0,97,0.00,,,0.00,WeatherCatV1.10B1784,2013-03-16 10:41:00,
2013-03-16 05:46:00,34.3,33.8,29.64,North,357,0.0,0.0,98,0.00,,,0.00,WeatherCatV1.10B1784,2013-03-16 10:46:00,
2013-03-16 05:51:00,34.6,34.1,29.64,North,3,0.0,0.0,98,0.00,,,0.00,WeatherCatV1.10B1784,2013-03-16 10:51:00,
2013-03-16 05:56:00,34.3,33.8,29.64,NNW,336,0.0,0.0,98,0.00,,,0.00,WeatherCatV1.10B1784,2013-03-16 10:56:00,
2013-03-16 06:01:00,34.3,33.8,29.65,North,349,0.0,0.0,98,0.00,,,0.00,WeatherCatV1.10B1784,2013-03-16 11:01:00,
2013-03-16 06:06:00,34.1,33.6,29.65,NNW,335,0.0,0.0,98,0.00,,,0.00,WeatherCatV1.10B1784,2013-03-16 11:06:00,
2013-03-16 06:11:00,34.3,33.8,29.65,NNW,329,0.0,0.0,98,0.00,,,0.00,WeatherCatV1.10B1784,2013-03-16 11:11:00,
2013-03-16 06:16:00,34.3,33.8,29.66,North,354,0.0,0.0,98,0.00,,,0.00,WeatherCatV1.10B1784,2013-03-16 11:16:00,
2013-03-16 06:21:00,34.0,33.5,29.66,North,359,0.0,0.0,98,0.00,,,0.00,WeatherCatV1.10B1784,2013-03-16 11:21:00,
2013-03-16 06:26:00,34.0,33.5,29.66,NW,319,0.0,0.0,98,0.00,,,0.00,WeatherCatV1.10B1784,2013-03-16 11:26:00,
2013-03-16 06:31:00,33.8,33.3,29.68,NNW,336,0.0,0.0,98,0.00,,,0.00,WeatherCatV1.10B1784,2013-03-16 11:31:00,
2013-03-16 06:36:00,33.7,33.2,29.68,NNW,339,0.0,0.0,98,0.00,,,0.00,WeatherCatV1.10B1784,2013-03-16 11:36:00,
2013-03-16 06:41:00,33.7,33.2,29.68,North,0,0.0,0.0,98,0.00,,,0.00,WeatherCatV1.10B1784,2013-03-16 11:41:00,
2013-03-16 06:46:00,33.5,33.0,29.69,NNW,333,0.0,0.0,98,0.00,,,0.00,WeatherCatV1.10B1784,2013-03-16 11:46:00,
2013-03-16 06:51:00,33.7,33.2,29.69,North,0,0.0,0.0,98,0.00,,,0.00,WeatherCatV1.10B1784,2013-03-16 11:51:00,
2013-03-16 06:56:00,33.7,33.2,29.69,NNW,333,0.0,0.0,98,0.00,,,0.00,WeatherCatV1.10B1784,2013-03-16 11:56:00,
2013-03-16 07:01:00,33.7,33.2,29.70,NW,320,0.0,0.0,98,0.00,,,0.00,WeatherCatV1.10B1784,2013-03-16 12:01:00,
2013-03-16 07:06:00,33.5,33.0,29.70,NNW,340,0.0,0.0,98,0.00,,,0.00,WeatherCatV1.10B1784,2013-03-16 12:06:00,
2013-03-16 07:11:00,33.5,33.0,29.70,NW,313,0.0,0.0,98,0.00,,,0.00,WeatherCatV1.10B1784,2013-03-16 12:11:00,
2013-03-16 07:16:00,33.5,33.0,29.71,WNW,282,0.0,0.0,98,0.00,,,0.00,WeatherCatV1.10B1784,2013-03-16 12:16:00,
2013-03-16 07:21:00,33.4,32.9,29.71,North,352,0.0,0.0,98,0.00,,,0.00,WeatherCatV1.10B1784,2013-03-16 12:21:00,
2013-03-16 07:26:00,33.4,32.9,29.71,NNW,347,0.0,0.0,98,0.00,,,0.00,WeatherCatV1.10B1784,2013-03-16 12:26:00,
2013-03-16 07:31:00,33.5,33.2,29.71,North,0,0.0,0.0,99,0.00,,,0.00,WeatherCatV1.10B1784,2013-03-16 12:31:00,
2013-03-16 07:36:00,33.5,33.2,29.71,NNW,344,0.0,0.0,99,0.00,,,0.00,WeatherCatV1.10B1784,2013-03-16 12:36:00,
2013-03-16 07:41:00,33.7,33.4,29.71,NNW,332,0.0,0.0,99,0.00,,,0.00,WeatherCatV1.10B1784,2013-03-16 12:41:00,
2013-03-16 07:46:00,33.7,33.4,29.73,NW,304,0.0,0.0,99,0.00,,,0.00,WeatherCatV1.10B1784,2013-03-16 12:46:00,
2013-03-16 07:51:00,33.7,33.4,29.73,NW,311,0.0,0.0,99,0.00,,,0.00,WeatherCatV1.10B1784,2013-03-16 12:51:00,
2013-03-16 07:56:00,33.5,33.2,29.73,West,271,0.0,0.0,99,0.00,,,0.00,WeatherCatV1.10B1784,2013-03-16 12:56:00,
2013-03-16 08:01:00,33.5,33.2,29.74,NW,320,0.0,0.0,99,0.00,,,0.00,WeatherCatV1.10B1784,2013-03-16 13:01:00,
2013-03-16 08:06:00,33.5,33.2,29.74,West,280,0.0,0.0,99,0.00,,,0.00,WeatherCatV1.10B1784,2013-03-16 13:06:00,
2013-03-16 08:11:00,33.5,33.2,29.74,NW,320,0.0,0.0,99,0.00,,,0.00,WeatherCatV1.10B1784,2013-03-16 13:11:00,
2013-03-16 08:16:00,33.4,32.9,29.76,NW,323,0.0,0.0,98,0.00,,,0.00,WeatherCatV1.10B1784,2013-03-16 13:16:00,
2013-03-16 08:21:00,33.2,32.7,29.76,NW,309,0.0,0.0,98,0.00,,,0.00,WeatherCatV1.10B1784,2013-03-16 13:21:00,
2013-03-16 08:26:00,33.1,32.6,29.76,NNW,339,0.0,0.0,98,0.00,,,0.00,WeatherCatV1.10B1784,2013-03-16 13:26:00,
2013-03-16 08:31:00,33.2,32.7,29.77,North,350,0.0,0.0,98,0.00,,,0.00,WeatherCatV1.10B1784,2013-03-16 13:31:00,
2013-03-16 08:36:00,33.2,32.7,29.77,NNW,347,0.0,0.0,98,0.00,,,0.00,WeatherCatV1.10B1784,2013-03-16 13:36:00,
2013-03-16 08:41:00,33.2,32.7,29.77,NNW,336,0.0,0.0,98,0.00,,,0.00,WeatherCatV1.10B1784,2013-03-16 13:41:00,
2013-03-16 08:46:00,33.2,32.7,29.79,West,267,0.0,0.0,98,0.00,,,0.00,WeatherCatV1.10B1784,2013-03-16 13:46:00,
2013-03-16 08:51:00,33.4,32.9,29.79,NW,315,0.0,0.0,98,0.00,,,0.00,WeatherCatV1.10B1784,2013-03-16 13:51:00,
2013-03-16 08:56:00,33.1,32.6,29.79,WNW,299,0.0,0.0,98,0.00,,,0.00,WeatherCatV1.10B1784,2013-03-16 13:56:00,
2013-03-16 09:01:00,33.1,32.6,29.80,NW,326,0.0,0.0,98,0.00,,,0.00,WeatherCatV1.10B1784,2013-03-16 14:01:00,
2013-03-16 09:06:00,33.1,32.6,29.80,NW,322,0.0,0.0,98,0.00,,,0.00,WeatherCatV1.10B1784,2013-03-16 14:06:00,
2013-03-16 09:11:00,33.1,32.6,29.80,NW,306,0.0,0.0,98,0.00,,,0.00,WeatherCatV1.10B1784,2013-03-16 14:11:00,
2013-03-16 09:16:00,33.1,32.6,29.81,NNW,332,0.0,0.0,98,0.00,,,0.00,WeatherCatV1.10B1784,2013-03-16 14:16:00,
2013-03-16 09:21:00,33.1,32.6,29.81,NNW,330,0.0,0.0,98,0.00,,,0.00,WeatherCatV1.10B1784,2013-03-16 14:21:00,
2013-03-16 09:26:00,33.1,32.6,29.81,NNW,339,0.0,0.0,98,0.00,,,0.00,WeatherCatV1.10B1784,2013-03-16 14:26:00,
2013-03-16 09:31:00,33.1,32.3,29.81,NNW,332,0.0,0.0,97,0.00,,,0.00,WeatherCatV1.10B1784,2013-03-16 14:31:00,
2013-03-16 09:36:00,33.1,32.3,29.81,NW,306,0.0,0.0,97,0.00,,,0.00,WeatherCatV1.10B1784,2013-03-16 14:36:00,
2013-03-16 09:41:00,33.1,32.3,29.81,NNW,347,0.0,0.0,97,0.00,,,0.00,WeatherCatV1.10B1784,2013-03-16 14:41:00,
2013-03-16 09:46:00,33.1,32.3,29.82,NNW,329,0.0,0.0,97,0.00,,,0.00,WeatherCatV1.10B1784,2013-03-16 14:46:00,
2013-03-16 09:51:00,32.9,32.1,29.82,NNW,347,0.0,0.0,97,0.00,,,0.00,WeatherCatV1.10B1784,2013-03-16 14:51:00,
2013-03-16 09:56:00,33.1,32.3,29.82,NW,323,0.0,0.0,97,0.00,,,0.00,WeatherCatV1.10B1784,2013-03-16 14:56:00,
2013-03-16 10:01:00,33.1,32.3,29.82,NNW,333,0.0,0.0,97,0.00,,,0.00,WeatherCatV1.10B1784,2013-03-16 15:01:00,
2013-03-16 10:06:00,33.1,32.3,29.82,NNW,343,0.0,0.0,97,0.00,,,0.00,WeatherCatV1.10B1784,2013-03-16 15:06:00,
2013-03-16 10:11:00,33.1,32.3,29.82,NNW,340,0.0,0.0,97,0.00,,,0.00,WeatherCatV1.10B1784,2013-03-16 15:11:00,
2013-03-16 10:16:00,33.2,32.4,29.83,WNW,301,0.0,0.0,97,0.00,,,0.00,WeatherCatV1.10B1784,2013-03-16 15:16:00,
2013-03-16 10:21:00,33.2,32.4,29.83,NNW,335,0.0,0.0,97,0.00,,,0.00,WeatherCatV1.10B1784,2013-03-16 15:21:00,
2013-03-16 10:26:00,33.4,32.6,29.83,NW,320,0.0,0.0,97,0.00,,,0.00,WeatherCatV1.10B1784,2013-03-16 15:26:00,
2013-03-16 10:31:00,33.2,32.4,29.84,NW,325,0.0,0.0,97,0.00,,,0.00,WeatherCatV1.10B1784,2013-03-16 15:31:00,
2013-03-16 10:36:00,33.2,32.4,29.84,NNW,335,0.0,0.0,97,0.00,,,0.00,WeatherCatV1.10B1784,2013-03-16 15:36:00,
2013-03-16 10:41:00,33.2,32.4,29.84,NNW,339,0.0,0.0,97,0.00,,,0.00,WeatherCatV1.10B1784,2013-03-16 15:41:00,
2013-03-16 10:46:00,33.4,32.6,29.84,NNW,342,0.0,0.0,97,0.00,,,0.00,WeatherCatV1.10B1784,2013-03-16 15:46:00,
2013-03-16 10:51:00,33.2,32.4,29.84,WNW,301,0.0,0.0,97,0.00,,,0.00,WeatherCatV1.10B1784,2013-03-16 15:51:00,
2013-03-16 10:56:00,33.2,32.4,29.84,NW,323,0.0,0.0,97,0.00,,,0.00,WeatherCatV1.10B1784,2013-03-16 15:56:00,
2013-03-16 11:01:00,33.4,32.6,29.86,NW,312,0.0,0.0,97,0.00,,,0.00,WeatherCatV1.10B1784,2013-03-16 16:01:00,
2013-03-16 11:12:00,33.2,32.2,29.86,NNW,339,0.0,0.0,96,0.00,,,0.00,WeatherCatV1.10B1784,2013-03-16 16:12:00,
2013-03-16 11:17:00,33.2,32.2,29.86,North,353,0.0,0.0,96,0.00,,,0.00,WeatherCatV1.10B1784,2013-03-16 16:17:00,
2013-03-16 11:22:00,33.5,32.5,29.86,NNW,343,0.0,0.0,96,0.00,,,0.00,WeatherCatV1.10B1784,2013-03-16 16:22:00,
2013-03-16 11:27:00,33.7,32.7,29.86,NW,309,0.0,0.0,96,0.00,,,0.00,WeatherCatV1.10B1784,2013-03-16 16:27:00,
2013-03-16 11:32:00,33.5,32.5,29.87,North,0,0.0,0.0,96,0.00,,,0.00,WeatherCatV1.10B1784,2013-03-16 16:32:00,
2013-03-16 11:37:00,34.0,33.0,29.87,NW,325,0.0,0.0,96,0.00,,,0.00,WeatherCatV1.10B1784,2013-03-16 16:37:00,
2013-03-16 11:42:00,34.1,32.6,29.87,NW,326,0.0,0.0,94,0.00,,,0.00,WeatherCatV1.10B1784,2013-03-16 16:42:00,
2013-03-16 11:47:00,34.7,32.9,29.88,NNW,344,0.0,0.0,93,0.00,,,0.00,WeatherCatV1.10B1784,2013-03-16 16:47:00,
2013-03-16 11:52:00,34.3,32.2,29.88,NW,326,0.0,0.0,92,0.00,,,0.00,WeatherCatV1.10B1784,2013-03-16 16:52:00,
2013-03-16 11:57:00,34.3,32.2,29.88,NNW,335,0.0,0.0,92,0.00,,,0.00,WeatherCatV1.10B1784,2013-03-16 16:57:00,
2013-03-16 12:02:00,34.4,32.0,29.88,North,3,0.0,0.0,91,0.00,,,0.00,WeatherCatV1.10B1784,2013-03-16 17:02:00,
2013-03-16 12:07:00,34.7,32.3,29.88,NW,316,0.0,0.0,91,0.00,,,0.00,WeatherCatV1.10B1784,2013-03-16 17:07:00,
2013-03-16 12:12:00,35.0,32.4,29.88,NNW,336,0.0,0.0,90,0.00,,,0.00,WeatherCatV1.10B1784,2013-03-16 17:12:00,
2013-03-16 12:17:00,35.5,32.3,29.88,NW,319,0.0,0.0,88,0.00,,,0.00,WeatherCatV1.10B1784,2013-03-16 17:17:00,
2013-03-16 12:22:00,35.5,32.3,29.88,NNW,346,0.0,0.0,88,0.00,,,0.00,WeatherCatV1.10B1784,2013-03-16 17:22:00,
2013-03-16 12:27:00,35.9,32.7,29.88,NNW,342,0.0,0.0,88,0.00,,,0.00,WeatherCatV1.10B1784,2013-03-16 17:27:00,
2013-03-16 12:32:00,36.2,32.4,29.89,North,4,0.0,0.0,86,0.00,,,0.00,WeatherCatV1.10B1784,2013-03-16 17:32:00,
2013-03-16 12:37:00,36.3,32.2,29.89,North,4,0.0,0.0,85,0.00,,,0.00,WeatherCatV1.10B1784,2013-03-16 17:37:00,
2013-03-16 12:42:00,36.2,31.8,29.89,ENE,62,0.0,0.0,84,0.00,,,0.00,WeatherCatV1.10B1784,2013-03-16 17:42:00,
2013-03-16 12:47:00,36.2,31.8,29.89,NW,309,0.0,0.0,84,0.00,,,0.00,WeatherCatV1.10B1784,2013-03-16 17:47:00,
2013-03-16 12:52:00,36.6,31.9,29.89,NNW,336,0.0,0.0,83,0.00,,,0.00,WeatherCatV1.10B1784,2013-03-16 17:52:00,
2013-03-16 12:57:00,36.9,32.2,29.89,NNW,335,0.0,0.0,83,0.00,,,0.00,WeatherCatV1.10B1784,2013-03-16 17:57:00,
2013-03-16 13:02:00,36.9,31.6,29.90,NNW,333,0.0,0.0,81,0.00,,,0.00,WeatherCatV1.10B1784,2013-03-16 18:02:00,
2013-03-16 13:07:00,37.0,32.0,29.90,NNW,339,0.0,0.0,82,0.00,,,0.00,WeatherCatV1.10B1784,2013-03-16 18:07:00,
2013-03-16 13:12:00,37.3,31.7,29.90,WNW,288,0.0,0.0,80,0.00,,,0.00,WeatherCatV1.10B1784,2013-03-16 18:12:00,
2013-03-16 13:17:00,37.5,31.9,29.90,NNW,344,0.0,0.0,80,0.00,,,0.00,WeatherCatV1.10B1784,2013-03-16 18:17:00,
2013-03-16 13:22:00,37.8,31.6,29.90,NNW,342,0.0,0.0,78,0.00,,,0.00,WeatherCatV1.10B1784,2013-03-16 18:22:00,
2013-03-16 13:27:00,37.5,31.0,29.90,ENE,61,0.0,0.0,77,0.00,,,0.00,WeatherCatV1.10B1784,2013-03-16 18:27:00,
2013-03-16 13:32:00,38.0,31.4,29.90,North,352,0.0,0.0,77,0.00,,,0.00,WeatherCatV1.10B1784,2013-03-16 18:32:00,
2013-03-16 13:37:00,38.3,31.1,29.90,North,359,0.0,0.0,75,0.00,,,0.00,WeatherCatV1.10B1784,2013-03-16 18:37:00,
2013-03-16 13:42:00,38.5,31.3,29.90,NNW,332,0.0,0.0,75,0.00,,,0.00,WeatherCatV1.10B1784,2013-03-16 18:42:00,
2013-03-16 13:47:00,38.5,31.6,29.89,NNE,21,0.0,0.0,76,0.00,,,0.00,WeatherCatV1.10B1784,2013-03-16 18:47:00,
2013-03-16 13:52:00,38.2,31.0,29.89,NNE,17,0.0,0.0,75,0.00,,,0.00,WeatherCatV1.10B1784,2013-03-16 18:52:00,
2013-03-16 13:57:00,38.0,30.8,29.89,North,356,0.0,0.0,75,0.00,,,0.00,WeatherCatV1.10B1784,2013-03-16 18:57:00,
2013-03-16 14:02:00,38.0,31.1,29.90,North,0,0.0,0.0,76,0.00,,,0.00,WeatherCatV1.10B1784,2013-03-16 19:02:00,
2013-03-16 14:07:00,38.3,31.1,29.90,NNW,333,0.0,0.0,75,0.00,,,0.00,WeatherCatV1.10B1784,2013-03-16 19:07:00,
2013-03-16 14:12:00,38.6,31.0,29.90,NW,318,0.0,0.0,74,0.00,,,0.00,WeatherCatV1.10B1784,2013-03-16 19:12:00,
2013-03-16 14:17:00,38.5,30.6,29.91,NNE,21,0.0,0.0,73,0.00,,,0.00,WeatherCatV1.10B1784,2013-03-16 19:17:00,
2013-03-16 14:22:00,38.2,30.3,29.91,NNW,336,0.0,0.0,73,0.00,,,0.00,WeatherCatV1.10B1784,2013-03-16 19:22:00,
2013-03-16 14:27:00,37.9,29.7,29.91,North,7,0.0,0.0,72,0.00,,,0.00,WeatherCatV1.10B1784,2013-03-16 19:27:00,
2013-03-16 14:32:00,37.5,29.6,29.91,NNW,332,0.0,0.0,73,0.00,,,0.00,WeatherCatV1.10B1784,2013-03-16 19:32:00,
2013-03-16 14:37:00,37.6,29.7,29.91,NW,325,0.0,0.0,73,0.00,,,0.00,WeatherCatV1.10B1784,2013-03-16 19:37:00,
2013-03-16 14:42:00,37.6,29.7,29.91,North,1,0.0,0.0,73,0.00,,,0.00,WeatherCatV1.10B1784,2013-03-16 19:42:00,
2013-03-16 14:47:00,37.6,29.7,29.91,North,4,0.0,0.0,73,0.00,,,0.00,WeatherCatV1.10B1784,2013-03-16 19:47:00,
2013-03-16 14:52:00,37.6,29.7,29.91,NE,34,0.0,0.0,73,0.00,,,0.00,WeatherCatV1.10B1784,2013-03-16 19:52:00,
2013-03-16 14:57:00,37.5,29.6,29.91,NNW,335,0.0,0.0,73,0.00,,,0.00,WeatherCatV1.10B1784,2013-03-16 19:57:00,
2013-03-16 15:02:00,37.2,29.7,29.91,NW,319,0.0,0.0,74,0.00,,,0.00,WeatherCatV1.10B1784,2013-03-16 20:02:00,
2013-03-16 15:07:00,37.0,29.5,29.91,NNW,340,0.0,0.0,74,0.00,,,0.00,WeatherCatV1.10B1784,2013-03-16 20:07:00,
2013-03-16 15:12:00,37.3,29.1,29.91,NW,313,0.0,0.0,72,0.00,,,0.00,WeatherCatV1.10B1784,2013-03-16 20:12:00,
2013-03-16 15:17:00,37.6,28.7,29.92,NW,308,0.0,0.0,70,0.00,,,0.00,WeatherCatV1.10B1784,2013-03-16 20:17:00,
2013-03-16 15:22:00,37.9,29.4,29.92,NNW,336,0.0,0.0,71,0.00,,,0.00,WeatherCatV1.10B1784,2013-03-16 20:22:00,
2013-03-16 15:27:00,37.6,29.4,29.92,NW,311,0.0,0.0,72,0.00,,,0.00,WeatherCatV1.10B1784,2013-03-16 20:27:00,
2013-03-16 15:32:00,37.3,28.8,29.92,NNW,343,0.0,0.0,71,0.00,,,0.00,WeatherCatV1.10B1784,2013-03-16 20:32:00,
2013-03-16 15:37:00,37.0,28.8,29.92,NNW,328,0.0,0.0,72,0.00,,,0.00,WeatherCatV1.10B1784,2013-03-16 20:37:00,
2013-03-16 15:42:00,37.2,28.7,29.92,North,357,0.0,0.0,71,0.00,,,0.00,WeatherCatV1.10B1784,2013-03-16 20:42:00,
2013-03-16 15:47:00,37.2,28.7,29.92,NNW,337,0.0,0.0,71,0.00,,,0.00,WeatherCatV1.10B1784,2013-03-16 20:47:00,
2013-03-16 15:52:00,37.5,28.6,29.92,NE,44,0.0,0.0,70,0.00,,,0.00,WeatherCatV1.10B1784,2013-03-16 20:52:00,
2013-03-16 15:57:00,37.5,28.6,29.92,North,357,0.0,0.0,70,0.00,,,0.00,WeatherCatV1.10B1784,2013-03-16 20:57:00,
2013-03-16 16:02:00,37.2,28.3,29.92,NNW,336,0.0,0.0,70,0.00,,,0.00,WeatherCatV1.10B1784,2013-03-16 21:02:00,
2013-03-16 16:07:00,37.5,28.6,29.92,North,7,0.0,0.0,70,0.00,,,0.00,WeatherCatV1.10B1784,2013-03-16 21:07:00,
2013-03-16 16:12:00,37.3,28.4,29.92,NNW,328,0.0,0.0,70,0.00,,,0.00,WeatherCatV1.10B1784,2013-03-16 21:12:00,
2013-03-16 16:17:00,37.0,27.8,29.93,NNW,335,0.0,0.0,69,0.00,,,0.00,WeatherCatV1.10B1784,2013-03-16 21:17:00,
2013-03-16 16:22:00,36.9,28.0,29.93,North,356,0.0,0.0,70,0.00,,,0.00,WeatherCatV1.10B1784,2013-03-16 21:22:00,
2013-03-16 16:27:00,37.0,27.8,29.93,NW,326,0.0,0.0,69,0.00,,,0.00,WeatherCatV1.10B1784,2013-03-16 21:27:00,
2013-03-16 16:32:00,36.9,27.7,29.94,NNW,328,0.0,0.0,69,0.00,,,0.00,WeatherCatV1.10B1784,2013-03-16 21:32:00,
2013-03-16 16:37:00,36.9,28.0,29.94,NNE,31,0.0,0.0,70,0.00,,,0.00,WeatherCatV1.10B1784,2013-03-16 21:37:00,
2013-03-16 16:42:00,36.8,27.6,29.94,NNW,333,0.0,0.0,69,0.00,,,0.00,WeatherCatV1.10B1784,2013-03-16 21:42:00,
2013-03-16 16:47:00,36.8,27.6,29.94,NNW,339,0.0,0.0,69,0.00,,,0.00,WeatherCatV1.10B1784,2013-03-16 21:47:00,
2013-03-16 16:52:00,36.8,27.9,29.94,NNE,31,0.0,0.0,70,0.00,,,0.00,WeatherCatV1.10B1784,2013-03-16 21:52:00,
2013-03-16 16:57:00,36.6,28.1,29.94,NNW,347,0.0,0.0,71,0.00,,,0.00,WeatherCatV1.10B1784,2013-03-16 21:57:00,
2013-03-16 17:02:00,36.5,27.7,29.94,NW,320,0.0,0.0,70,0.00,,,0.00,WeatherCatV1.10B1784,2013-03-16 22:02:00,
2013-03-16 17:07:00,36.3,28.2,29.94,NNW,332,0.0,0.0,72,0.00,,,0.00,WeatherCatV1.10B1784,2013-03-16 22:07:00,
2013-03-16 17:12:00,36.3,27.8,29.94,NNW,329,0.0,0.0,71,0.00,,,0.00,WeatherCatV1.10B1784,2013-03-16 22:12:00,
2013-03-16 17:17:00,36.3,27.8,29.94,NNW,337,0.0,0.0,71,0.00,,,0.00,WeatherCatV1.10B1784,2013-03-16 22:17:00,
2013-03-16 17:22:00,36.2,27.0,29.94,NNW,328,0.0,0.0,69,0.00,,,0.00,WeatherCatV1.10B1784,2013-03-16 22:22:00,
2013-03-16 17:27:00,36.3,27.5,29.94,NNW,339,0.0,0.0,70,0.00,,,0.00,WeatherCatV1.10B1784,2013-03-16 22:27:00,
2013-03-16 17:32:00,36.5,27.7,29.95,North,356,0.0,0.0,70,0.00,,,0.00,WeatherCatV1.10B1784,2013-03-16 22:32:00,
2013-03-16 17:37:00,36.2,27.4,29.95,NNW,329,0.0,0.0,70,0.00,,,0.00,WeatherCatV1.10B1784,2013-03-16 22:37:00,
2013-03-16 17:42:00,35.9,27.8,29.95,NW,326,0.0,0.0,72,0.00,,,0.00,WeatherCatV1.10B1784,2013-03-16 22:42:00,
2013-03-16 17:47:00,35.9,27.8,29.94,NNW,332,0.0,0.0,72,0.00,,,0.00,WeatherCatV1.10B1784,2013-03-16 22:47:00,
2013-03-16 17:52:00,35.8,27.7,29.94,NNW,336,0.0,0.0,72,0.00,,,0.00,WeatherCatV1.10B1784,2013-03-16 22:52:00,
2013-03-16 17:57:00,35.5,27.4,29.94,NNW,337,0.0,0.0,72,0.00,,,0.00,WeatherCatV1.10B1784,2013-03-16 22:57:00,
2013-03-16 18:02:00,35.5,27.4,29.95,NNW,330,0.0,0.0,72,0.00,,,0.00,WeatherCatV1.10B1784,2013-03-16 23:02:00,
2013-03-16 18:07:00,35.5,27.0,29.95,North,8,0.0,0.0,71,0.00,,,0.00,WeatherCatV1.10B1784,2013-03-16 23:07:00,
2013-03-16 18:12:00,35.5,27.0,29.95,North,1,0.0,0.0,71,0.00,,,0.00,WeatherCatV1.10B1784,2013-03-16 23:12:00,
2013-03-16 18:17:00,35.5,27.0,29.95,NNE,13,0.0,0.0,71,0.00,,,0.00,WeatherCatV1.10B1784,2013-03-16 23:17:00,
2013-03-16 18:22:00,35.3,27.2,29.95,North,359,0.0,0.0,72,0.00,,,0.00,WeatherCatV1.10B1784,2013-03-16 23:22:00,
2013-03-16 18:27:00,35.2,27.1,29.95,North,0,0.0,0.0,72,0.00,,,0.00,WeatherCatV1.10B1784,2013-03-16 23:27:00,
2013-03-16 18:32:00,35.0,26.9,29.95,NNE,20,0.0,0.0,72,0.00,,,0.00,WeatherCatV1.10B1784,2013-03-16 23:32:00,
2013-03-16 18:37:00,34.9,26.8,29.95,NW,323,0.0,0.0,72,0.00,,,0.00,WeatherCatV1.10B1784,2013-03-16 23:37:00,
2013-03-16 18:42:00,34.9,26.8,29.95,North,4,0.0,0.0,72,0.00,,,0.00,WeatherCatV1.10B1784,2013-03-16 23:42:00,
2013-03-16 18:47:00,34.7,26.6,29.96,NNE,30,0.0,0.0,72,0.00,,,0.00,WeatherCatV1.10B1784,2013-03-16 23:47:00,
2013-03-16 18:52:00,34.6,26.5,29.96,NNE,30,0.0,0.0,72,0.00,,,0.00,WeatherCatV1.10B1784,2013-03-16 23:52:00,
2013-03-16 18:57:00,34.4,26.3,29.96,NE,49,0.0,0.0,72,0.00,,,0.00,WeatherCatV1.10B1784,2013-03-16 23:57:00,
2013-03-16 19:02:00,34.3,26.6,29.96,NNE,31,0.0,0.0,73,0.00,,,0.00,WeatherCatV1.10B1784,2013-03-17 00:02:00,
2013-03-16 19:07:00,34.0,26.3,29.96,ENE,73,0.0,0.0,73,0.00,,,0.00,WeatherCatV1.10B1784,2013-03-17 00:07:00,
2013-03-16 19:12:00,33.8,26.4,29.96,ENE,61,0.0,0.0,74,0.00,,,0.00,WeatherCatV1.10B1784,2013-03-17 00:12:00,
2013-03-16 19:17:00,33.7,26.3,29.97,North,357,0.0,0.0,74,0.00,,,0.00,WeatherCatV1.10B1784,2013-03-17 00:17:00,
2013-03-16 19:22:00,33.5,26.1,29.97,NE,38,0.0,0.0,74,0.00,,,0.00,WeatherCatV1.10B1784,2013-03-17 00:22:00,
2013-03-16 19:27:00,33.4,26.0,29.97,NNE,17,0.0,0.0,74,0.00,,,0.00,WeatherCatV1.10B1784,2013-03-17 00:27:00,
2013-03-16 19:32:00,33.4,26.0,29.98,NE,44,0.0,0.0,74,0.00,,,0.00,WeatherCatV1.10B1784,2013-03-17 00:32:00,
2013-03-16 19:37:00,33.4,25.7,29.98,NNW,347,0.0,0.0,73,0.00,,,0.00,WeatherCatV1.10B1784,2013-03-17 00:37:00,
2013-03-16 19:42:00,33.4,26.0,29.98,North,356,0.0,0.0,74,0.00,,,0.00,WeatherCatV1.10B1784,2013-03-17 00:42:00,
2013-03-16 19:47:00,33.4,25.7,29.99,NNE,24,0.0,0.0,73,0.00,,,0.00,WeatherCatV1.10B1784,2013-03-17 00:47:00,
2013-03-16 19:52:00,33.4,25.7,29.99,NNE,24,0.0,0.0,73,0.00,,,0.00,WeatherCatV1.10B1784,2013-03-17 00:52:00,
2013-03-16 19:57:00,33.4,25.7,29.99,NNE,25,0.0,0.0,73,0.00,,,0.00,WeatherCatV1.10B1784,2013-03-17 00:57:00,
2013-03-16 20:02:00,33.2,25.5,29.99,NNE,25,0.0,0.0,73,0.00,,,0.00,WeatherCatV1.10B1784,2013-03-17 01:02:00,
2013-03-16 20:07:00,33.2,25.5,29.99,NNE,21,0.0,0.0,73,0.00,,,0.00,WeatherCatV1.10B1784,2013-03-17 01:07:00,
2013-03-16 20:12:00,33.2,25.8,29.99,NNE,18,0.0,0.0,74,0.00,,,0.00,WeatherCatV1.10B1784,2013-03-17 01:12:00,
2013-03-16 20:17:00,33.1,25.7,30.00,NNE,18,0.0,0.0,74,0.00,,,0.00,WeatherCatV1.10B1784,2013-03-17 01:17:00,
2013-03-16 20:22:00,33.1,25.7,30.00,NNE,18,0.0,0.0,74,0.00,,,0.00,WeatherCatV1.10B1784,2013-03-17 01:22:00,
2013-03-16 20:27:00,33.1,25.7,30.00,North,4,0.0,0.0,74,0.00,,,0.00,WeatherCatV1.10B1784,2013-03-17 01:27:00,
2013-03-16 20:32:00,33.1,26.1,30.01,NNW,342,0.0,0.0,75,0.00,,,0.00,WeatherCatV1.10B1784,2013-03-17 01:32:00,
2013-03-16 20:37:00,32.9,25.9,30.01,NNW,342,0.0,0.0,75,0.00,,,0.00,WeatherCatV1.10B1784,2013-03-17 01:37:00,
2013-03-16 20:42:00,32.9,25.9,30.01,NNW,342,0.0,0.0,75,0.00,,,0.00,WeatherCatV1.10B1784,2013-03-17 01:42:00,
2013-03-16 20:47:00,32.8,26.1,30.01,NNW,342,0.0,0.0,76,0.00,,,0.00,WeatherCatV1.10B1784,2013-03-17 01:47:00,
2013-03-16 20:52:00,32.7,26.0,30.01,North,356,0.0,0.0,76,0.00,,,0.00,WeatherCatV1.10B1784,2013-03-17 01:52:00,
2013-03-16 20:57:00,32.5,25.5,30.01,NNE,17,0.0,0.0,75,0.00,,,0.00,WeatherCatV1.10B1784,2013-03-17 01:57:00,
2013-03-16 21:02:00,32.4,25.4,30.01,NNE,18,0.0,0.0,75,0.00,,,0.00,WeatherCatV1.10B1784,2013-03-17 02:02:00,
2013-03-16 21:07:00,32.2,25.2,30.01,NE,42,0.0,0.0,75,0.00,,,0.00,WeatherCatV1.10B1784,2013-03-17 02:07:00,
2013-03-16 21:12:00,32.2,25.5,30.01,NE,48,0.0,0.0,76,0.00,,,0.00,WeatherCatV1.10B1784,2013-03-17 02:12:00,
2013-03-16 21:17:00,32.1,25.4,30.01,NE,49,0.0,0.0,76,0.00,,,0.00,WeatherCatV1.10B1784,2013-03-17 02:17:00,
2013-03-16 21:22:00,31.9,25.5,30.01,NE,55,0.0,0.0,77,0.00,,,0.00,WeatherCatV1.10B1784,2013-03-17 02:22:00,
2013-03-16 21:27:00,31.9,25.5,30.01,NE,55,0.0,0.0,77,0.00,,,0.00,WeatherCatV1.10B1784,2013-03-17 02:27:00,
2013-03-16 21:32:00,31.8,25.4,30.01,NE,54,0.0,0.0,77,0.00,,,0.00,WeatherCatV1.10B1784,2013-03-17 02:32:00,
2013-03-16 21:37:00,31.8,25.7,30.01,ENE,61,0.0,0.0,78,0.00,,,0.00,WeatherCatV1.10B1784,2013-03-17 02:37:00,
2013-03-16 21:42:00,31.6,25.8,30.01,ENE,62,0.0,0.0,79,0.00,,,0.00,WeatherCatV1.10B1784,2013-03-17 02:42:00,
2013-03-16 21:47:00,31.6,25.8,30.01,ENE,64,0.0,0.0,79,0.00,,,0.00,WeatherCatV1.10B1784,2013-03-17 02:47:00,
2013-03-16 21:52:00,31.5,26.1,30.01,NE,54,0.0,0.0,80,0.00,,,0.00,WeatherCatV1.10B1784,2013-03-17 02:52:00,
2013-03-16 21:57:00,31.5,26.1,30.01,NE,55,0.0,0.0,80,0.00,,,0.00,WeatherCatV1.10B1784,2013-03-17 02:57:00,
2013-03-16 22:02:00,31.3,25.9,30.01,NE,54,0.0,0.0,80,0.00,,,0.00,WeatherCatV1.10B1784,2013-03-17 03:02:00,
2013-03-16 22:07:00,31.3,26.2,30.01,NE,54,0.0,0.0,81,0.00,,,0.00,WeatherCatV1.10B1784,2013-03-17 03:07:00,
2013-03-16 22:12:00,31.3,26.2,30.01,NE,54,0.0,0.0,81,0.00,,,0.00,WeatherCatV1.10B1784,2013-03-17 03:12:00,
2013-03-16 22:17:00,31.2,26.1,30.02,NE,42,0.0,0.0,81,0.00,,,0.00,WeatherCatV1.10B1784,2013-03-17 03:17:00,
2013-03-16 22:22:00,31.0,25.9,30.02,NE,34,0.0,0.0,81,0.00,,,0.00,WeatherCatV1.10B1784,2013-03-17 03:22:00,
2013-03-16 22:27:00,31.0,25.9,30.02,NE,34,0.0,0.0,81,0.00,,,0.00,WeatherCatV1.10B1784,2013-03-17 03:27:00,
2013-03-16 22:32:00,31.0,25.9,30.02,North,1,0.0,0.0,81,0.00,,,0.00,WeatherCatV1.10B1784,2013-03-17 03:32:00,
2013-03-16 22:37:00,30.9,25.8,30.02,ENE,64,0.0,0.0,81,0.00,,,0.00,WeatherCatV1.10B1784,2013-03-17 03:37:00,
2013-03-16 22:42:00,30.9,25.8,30.02,NNE,30,0.0,0.0,81,0.00,,,0.00,WeatherCatV1.10B1784,2013-03-17 03:42:00,
2013-03-16 22:47:00,30.7,25.9,30.02,North,4,0.0,0.0,82,0.00,,,0.00,WeatherCatV1.10B1784,2013-03-17 03:47:00,
2013-03-16 22:52:00,30.7,25.9,30.02,North,0,0.0,0.0,82,0.00,,,0.00,WeatherCatV1.10B1784,2013-03-17 03:52:00,
2013-03-16 22:57:00,30.7,25.9,30.02,North,7,0.0,0.0,82,0.00,,,0.00,WeatherCatV1.10B1784,2013-03-17 03:57:00,
2013-03-16 23:00:00,30.7,25.6,30.03,NE,41,0.0,0.0,81,0.00,,,0.00,WeatherCatV1.10B1784,2013-03-17 04:00:00,
2013-03-16 23:01:00,30.7,25.6,30.03,NE,42,0.0,0.0,81,0.00,,,0.00,WeatherCatV1.10B1784,2013-03-17 04:01:00,
2013-03-16 23:06:00,30.7,25.6,30.03,North,359,0.0,0.0,81,0.00,,,0.00,WeatherCatV1.10B1784,2013-03-17 04:06:00,
2013-03-16 23:11:00,30.7,25.6,30.03,NNE,30,0.0,0.0,81,0.00,,,0.00,WeatherCatV1.10B1784,2013-03-17 04:11:00,
2013-03-16 23:16:00,30.7,25.6,30.03,NNE,23,0.0,0.0,81,0.00,,,0.00,WeatherCatV1.10B1784,2013-03-17 04:16:00,
2013-03-16 23:21:00,30.7,25.6,30.03,NE,56,0.0,0.0,81,0.00,,,0.00,WeatherCatV1.10B1784,2013-03-17 04:21:00,
2013-03-16 23:26:00,30.6,25.5,30.03,NNE,24,0.0,0.0,81,0.00,,,0.00,WeatherCatV1.10B1784,2013-03-17 04:26:00,
2013-03-16 23:31:00,30.6,25.5,30.03,North,7,0.0,0.0,81,0.00,,,0.00,WeatherCatV1.10B1784,2013-03-17 04:31:00,
2013-03-16 23:36:00,30.4,25.3,30.03,North,8,0.0,0.0,81,0.00,,,0.00,WeatherCatV1.10B1784,2013-03-17 04:36:00,
2013-03-16 23:41:00,30.4,25.3,30.03,ENE,71,0.0,0.0,81,0.00,,,0.00,WeatherCatV1.10B1784,2013-03-17 04:41:00,
2013-03-16 23:46:00,30.4,25.3,30.03,East,82,0.0,0.0,81,0.00,,,0.00,WeatherCatV1.10B1784,2013-03-17 04:46:00,
2013-03-16 23:51:00,30.3,25.2,30.03,NE,51,0.0,0.0,81,0.00,,,0.00,WeatherCatV1.10B1784,2013-03-17 04:51:00,
2013-03-16 23:56:00,30.3,25.2,30.03,NE,38,0.0,0.0,81,0.00,,,0.00,WeatherCatV1.10B1784,2013-03-17 04:56:00,